createdAt,value
2018-02-13T00:00:22.614Z,2.47
2018-02-13T00:02:50.175Z,5.47
2018-02-13T00:05:18.519Z,4.65
2018-02-13T00:07:46.066Z,4.95
2018-02-13T00:10:13.686Z,2.65
2018-02-13T00:12:41.998Z,7.47
2018-02-13T00:15:09.554Z,6.18
2018-02-13T00:17:37.138Z,7.05
2018-02-13T00:20:04.697Z,6.32
2018-02-13T00:22:44.159Z,12.65
2018-02-13T00:25:11.727Z,3.12
2018-02-13T00:27:40.087Z,6.47
2018-02-13T00:30:07.638Z,5.68
2018-02-13T00:32:35.255Z,7.15
2018-02-13T00:35:02.803Z,6.82
2018-02-13T00:37:30.364Z,5.70
2018-02-13T00:39:58.086Z,5.10
2018-02-13T00:42:25.654Z,4.25
2018-02-13T00:44:54.010Z,6.50
2018-02-13T00:47:21.612Z,9.48
2018-02-13T00:49:49.162Z,6.30
2018-02-13T00:52:17.625Z,7.47
2018-02-13T00:54:45.314Z,7.45
2018-02-13T00:57:12.870Z,6.65
2018-02-13T00:59:40.474Z,5.37
2018-02-13T01:02:08.045Z,2.78
2018-02-13T01:04:35.598Z,3.97
2018-02-13T01:07:03.185Z,3.97
2018-02-13T01:09:31.561Z,2.60
2018-02-13T01:12:00.032Z,3.30
2018-02-13T01:14:27.582Z,4.87
2018-02-13T01:16:55.200Z,5.18
2018-02-13T01:19:22.771Z,3.30
2018-02-13T01:21:50.358Z,3.80
2018-02-13T01:24:17.931Z,7.62
2018-02-13T01:26:46.458Z,4.25
2018-02-13T01:29:14.025Z,10.80
2018-02-13T01:31:41.613Z,6.68
2018-02-13T01:34:09.165Z,8.15
2018-02-13T01:36:36.743Z,8.52
2018-02-13T01:39:05.090Z,5.93
2018-02-13T01:41:32.656Z,7.50
2018-02-13T01:44:00.485Z,3.28
2018-02-13T01:46:28.070Z,10.45
2018-02-13T01:48:55.651Z,4.15
2018-02-13T01:51:23.242Z,8.82
2018-02-13T01:53:50.815Z,1.75
2018-02-13T01:56:18.396Z,4.87
2018-02-13T01:58:45.942Z,5.43
2018-02-13T02:01:13.551Z,18.55
2018-02-13T02:03:41.105Z,3.87
2018-02-13T02:06:08.692Z,11.40
2018-02-13T02:08:36.260Z,7.07
2018-02-13T02:11:03.802Z,5.25
2018-02-13T02:13:32.309Z,4.03
2018-02-13T02:15:59.912Z,4.53
2018-02-13T02:18:28.246Z,5.32
2018-02-13T02:20:55.810Z,7.37
2018-02-13T02:23:23.410Z,6.93
2018-02-13T02:25:50.966Z,5.62
2018-02-13T02:28:18.622Z,3.20
2018-02-13T02:30:46.422Z,4.97
2018-02-13T02:33:13.987Z,2.90
2018-02-13T02:35:41.701Z,4.95
2018-02-13T02:38:09.262Z,5.72
2018-02-13T02:40:36.854Z,8.70
2018-02-13T02:43:05.999Z,4.25
2018-02-13T02:45:33.587Z,6.80
2018-02-13T02:48:01.164Z,4.97
2018-02-13T02:50:29.458Z,4.35
2018-02-13T02:52:57.042Z,6.47
2018-02-13T02:55:24.606Z,5.22
2018-02-13T02:57:52.198Z,6.62
2018-02-13T03:00:19.749Z,4.75
2018-02-13T03:02:47.356Z,4.90
2018-02-13T03:05:14.911Z,2.78
2018-02-13T03:07:42.466Z,6.68
2018-02-13T03:10:10.066Z,4.97
2018-02-13T03:12:37.658Z,5.53
2018-02-13T03:15:06.023Z,4.18
2018-02-13T03:17:33.620Z,4.35
2018-02-13T03:20:01.182Z,10.50
2018-02-13T03:22:28.786Z,3.35
2018-02-13T03:24:56.342Z,2.78
2018-02-13T03:27:23.917Z,4.90
2018-02-13T03:29:51.504Z,6.68
2018-02-13T03:32:19.828Z,3.87
2018-02-13T03:34:47.410Z,8.10
2018-02-13T03:37:15.014Z,4.30
2018-02-13T03:39:42.662Z,4.22
2018-02-13T03:42:10.350Z,3.58
2018-02-13T03:44:37.909Z,3.75
2018-02-13T03:47:05.475Z,5.32
2018-02-13T03:49:33.066Z,5.87
2018-02-13T03:52:00.609Z,5.43
2018-02-13T03:54:28.292Z,4.37
2018-02-13T03:56:55.862Z,3.53
2018-02-13T03:59:24.218Z,4.65
2018-02-13T04:01:51.798Z,8.35
2018-02-13T04:04:20.161Z,6.47
2018-02-13T04:06:47.719Z,3.10
2018-02-13T04:09:15.329Z,3.35
2018-02-13T04:11:42.885Z,8.60
2018-02-13T04:14:10.454Z,4.70
2018-02-13T04:16:38.054Z,5.37
2018-02-13T04:19:05.750Z,4.20
2018-02-13T04:21:33.410Z,5.18
2018-02-13T04:24:00.994Z,6.70
2018-02-13T04:26:28.614Z,7.12
2018-02-13T04:28:56.956Z,3.60
2018-02-13T04:31:24.553Z,6.72
2018-02-13T04:33:52.235Z,6.45
2018-02-13T04:36:19.822Z,5.70
2018-02-13T04:38:47.371Z,6.32
2018-02-13T04:41:14.933Z,6.72
2018-02-13T04:43:42.534Z,4.45
2018-02-13T04:46:10.862Z,8.73
2018-02-13T04:48:38.430Z,7.35
2018-02-13T04:51:06.014Z,8.00
2018-02-13T04:53:33.635Z,7.22
2018-02-13T04:56:01.222Z,7.25
2018-02-13T04:58:28.866Z,7.97
2018-02-13T05:00:56.573Z,7.82
2018-02-13T05:03:24.909Z,8.00
2018-02-13T05:05:52.501Z,9.10
2018-02-13T05:08:20.837Z,12.05
2018-02-13T05:10:48.418Z,7.57
2018-02-13T05:13:15.993Z,8.77
2018-02-13T05:15:44.314Z,7.43
2018-02-13T05:18:11.937Z,16.00
2018-02-13T05:20:40.362Z,14.13
2018-02-13T05:23:08.014Z,7.75
2018-02-13T05:25:35.730Z,6.68
2018-02-13T05:28:04.105Z,10.45
2018-02-13T05:30:32.450Z,7.95
2018-02-13T05:33:00.004Z,11.90
2018-02-13T05:35:27.594Z,8.55
2018-02-13T05:37:55.158Z,8.43
2018-02-13T05:40:23.530Z,10.93
2018-02-13T05:42:51.097Z,7.50
2018-02-13T05:45:19.458Z,9.70
2018-02-13T05:47:47.794Z,11.12
2018-02-13T05:50:15.351Z,5.78
2018-02-13T05:52:42.950Z,4.87
2018-02-13T05:55:10.518Z,5.30
2018-02-13T05:57:38.110Z,6.10
2018-02-13T06:00:05.670Z,4.85
2018-02-13T06:02:33.293Z,5.90
2018-02-13T06:05:00.881Z,4.53
2018-02-13T06:07:28.442Z,5.55
2018-02-13T06:09:56.017Z,4.47
2018-02-13T06:12:23.581Z,4.85
2018-02-13T06:14:51.163Z,8.63
2018-02-13T06:17:18.728Z,5.15
2018-02-13T06:19:46.310Z,5.85
2018-02-13T06:22:14.641Z,3.35
2018-02-13T06:24:42.279Z,4.28
2018-02-13T06:27:09.821Z,5.90
2018-02-13T06:29:37.494Z,9.63
2018-02-13T06:32:05.077Z,6.85
2018-02-13T06:34:32.634Z,4.35
2018-02-13T06:37:00.305Z,9.07
2018-02-13T06:39:27.905Z,7.75
2018-02-13T06:41:56.254Z,7.50
2018-02-13T06:44:23.821Z,4.82
2018-02-13T06:46:51.422Z,6.75
2018-02-13T06:49:19.086Z,7.25
2018-02-13T06:51:46.752Z,12.80
2018-02-13T06:54:14.334Z,8.55
2018-02-13T06:56:41.890Z,5.55
2018-02-13T06:59:10.345Z,7.53
2018-02-13T07:01:37.902Z,8.13
2018-02-13T07:04:05.507Z,7.97
2018-02-13T07:06:33.093Z,5.45
2018-02-13T07:09:01.506Z,6.82
2018-02-13T07:11:29.061Z,8.45
2018-02-13T07:13:56.621Z,7.70
2018-02-13T07:16:24.202Z,12.65
2018-02-13T07:18:51.868Z,8.43
2018-02-13T07:21:19.446Z,7.25
2018-02-13T07:23:48.515Z,6.32
2018-02-13T07:26:16.111Z,11.25
2018-02-13T07:28:43.702Z,9.40
2018-02-13T07:31:11.311Z,9.02
2018-02-13T07:33:38.858Z,8.95
2018-02-13T07:36:06.421Z,8.10
2018-02-13T07:38:34.002Z,9.93
2018-02-13T07:41:01.659Z,7.62
2018-02-13T07:43:30.008Z,7.97
2018-02-13T07:45:57.698Z,5.85
2018-02-13T07:48:25.299Z,5.80
2018-02-13T07:50:52.895Z,4.15
2018-02-13T07:53:20.454Z,6.85
2018-02-13T07:55:48.218Z,9.45
2018-02-13T07:58:15.782Z,10.85
2018-02-13T08:00:43.482Z,13.45
2018-02-13T08:03:11.040Z,5.10
2018-02-13T08:05:39.390Z,11.73
2018-02-13T08:08:06.950Z,4.00
2018-02-13T08:10:34.554Z,7.28
2018-02-13T08:13:02.130Z,7.12
2018-02-13T08:15:29.870Z,9.70
2018-02-13T08:17:57.490Z,9.65
2018-02-13T08:20:25.049Z,7.78
2018-02-13T08:22:52.713Z,6.95
2018-02-13T08:25:20.281Z,6.93
2018-02-13T08:27:48.638Z,9.27
2018-02-13T08:30:16.179Z,9.07
2018-02-13T08:32:43.747Z,6.35
2018-02-13T08:35:11.305Z,10.27
2018-02-13T08:37:38.891Z,11.12
2018-02-13T08:40:07.358Z,12.25
2018-02-13T08:42:34.910Z,7.70
2018-02-13T08:45:04.057Z,8.30
2018-02-13T08:47:31.629Z,10.75
2018-02-13T08:49:59.290Z,7.82
2018-02-13T08:52:26.854Z,13.43
2018-02-13T08:54:54.471Z,17.98
2018-02-13T08:57:22.802Z,3.55
2018-02-13T08:59:50.363Z,7.72
2018-02-13T09:02:18.101Z,10.52
2018-02-13T09:04:45.823Z,5.82
2018-02-13T09:07:14.176Z,3.25
2018-02-13T09:09:41.734Z,8.05
2018-02-13T09:12:09.329Z,4.12
2018-02-13T09:14:36.894Z,8.60
2018-02-13T09:17:04.509Z,2.35
2018-02-13T09:19:32.202Z,7.28
2018-02-13T09:22:00.658Z,2.92
2018-02-13T09:24:28.246Z,7.10
2018-02-13T09:26:55.806Z,5.30
2018-02-13T09:29:23.551Z,5.65
2018-02-13T09:31:51.881Z,4.35
2018-02-13T09:34:19.582Z,3.65
2018-02-13T09:36:48.249Z,3.87
2018-02-13T09:39:15.805Z,4.62
2018-02-13T09:41:43.394Z,4.85
2018-02-13T09:44:11.746Z,5.10
2018-02-13T09:46:39.345Z,4.90
2018-02-13T09:49:06.914Z,4.50
2018-02-13T09:51:34.509Z,4.40
2018-02-13T09:54:02.082Z,3.65
2018-02-13T09:56:31.178Z,4.30
2018-02-13T09:58:58.774Z,5.82
2018-02-13T10:01:26.334Z,2.92
2018-02-13T10:03:54.053Z,3.73
2018-02-13T10:06:21.627Z,10.88
2018-02-13T10:08:50.013Z,12.57
2018-02-13T10:11:18.344Z,12.33
2018-02-13T10:13:45.918Z,4.90
2018-02-13T10:18:55.188Z,3.90
2018-02-13T10:21:23.510Z,4.33
2018-02-13T10:23:51.104Z,5.23
2018-02-13T10:26:18.881Z,3.77
2018-02-13T10:28:46.438Z,4.30
2018-02-13T10:31:14.786Z,7.40
2018-02-13T10:33:42.380Z,3.23
2018-02-13T10:36:10.186Z,1.37
2018-02-13T10:38:37.848Z,6.62
2018-02-13T10:41:05.442Z,2.15
2018-02-13T10:43:32.994Z,2.67
2018-02-13T10:46:00.591Z,2.12
2018-02-13T10:48:28.918Z,3.55
2018-02-13T10:50:56.650Z,4.60
2018-02-13T10:53:24.218Z,1.33
2018-02-13T10:55:51.795Z,2.97
2018-02-13T10:58:19.377Z,3.70
2018-02-13T11:00:52.579Z,2.37
2018-02-13T11:03:20.190Z,1.95
2018-02-13T11:05:47.894Z,1.00
2018-02-13T11:08:15.489Z,3.58
2018-02-13T11:10:43.058Z,3.85
2018-02-13T11:13:10.643Z,5.20
2018-02-13T11:15:38.254Z,3.20
2018-02-13T11:18:05.790Z,7.72
2018-02-13T11:20:33.385Z,2.73
2018-02-13T11:23:01.795Z,1.90
2018-02-13T11:25:29.370Z,5.40
2018-02-13T11:27:56.926Z,3.97
2018-02-13T11:30:24.525Z,3.53
2018-02-13T11:32:52.941Z,5.00
2018-02-13T11:35:20.637Z,6.73
2018-02-13T11:37:48.186Z,6.50
2018-02-13T11:40:15.778Z,4.53
2018-02-13T11:42:44.290Z,2.50
2018-02-13T11:45:11.898Z,2.70
2018-02-13T11:47:40.249Z,3.20
2018-02-13T11:50:07.815Z,1.73
2018-02-13T11:52:35.530Z,1.90
2018-02-13T11:55:03.109Z,9.93
2018-02-13T11:57:30.686Z,5.37
2018-02-13T11:59:58.274Z,3.47
2018-02-13T12:02:25.865Z,1.97
2018-02-13T12:04:53.468Z,2.03
2018-02-13T12:07:21.018Z,3.67
2018-02-13T12:09:48.638Z,2.03
2018-02-13T12:12:16.973Z,1.53
2018-02-13T12:14:44.514Z,2.97
2018-02-13T12:17:12.201Z,1.70
2018-02-13T12:19:39.766Z,2.60
2018-02-13T12:22:07.382Z,5.60
2018-02-13T12:24:34.938Z,2.97
2018-02-13T12:27:02.519Z,4.70
2018-02-13T12:29:30.090Z,2.47
2018-02-13T12:31:57.670Z,3.10
2018-02-13T12:34:25.990Z,4.27
2018-02-13T12:36:53.600Z,3.10
2018-02-13T12:39:21.154Z,3.63
2018-02-13T12:41:48.810Z,1.93
2018-02-13T12:44:16.499Z,5.10
2018-02-13T12:46:44.154Z,3.30
2018-02-13T12:49:12.437Z,3.20
2018-02-13T12:51:39.990Z,5.00
2018-02-13T12:54:08.464Z,2.17
2018-02-13T12:56:36.882Z,2.70
2018-02-13T12:59:04.533Z,4.60
2018-02-13T13:01:32.091Z,5.27
2018-02-13T13:04:00.420Z,2.80
2018-02-13T13:06:27.982Z,2.37
2018-02-13T13:08:55.835Z,2.90
2018-02-13T13:11:23.382Z,3.93
2018-02-13T13:13:50.970Z,5.17
2018-02-13T13:16:19.322Z,3.33
2018-02-13T13:18:47.026Z,3.23
2018-02-13T13:21:15.377Z,3.63
2018-02-13T13:23:42.930Z,3.73
2018-02-13T13:26:12.204Z,3.00
2018-02-13T13:28:39.851Z,2.90
2018-02-13T13:31:07.515Z,2.80
2018-02-13T13:33:35.164Z,2.30
2018-02-13T13:36:02.725Z,4.17
2018-02-13T13:38:30.392Z,2.83
2018-02-13T13:40:58.117Z,2.30
2018-02-13T13:43:26.454Z,3.83
2018-02-13T13:45:54.045Z,2.57
2018-02-13T13:48:22.366Z,6.90
2018-02-13T13:50:49.958Z,7.70
2018-02-13T13:53:17.526Z,2.90
2018-02-13T13:55:45.114Z,6.40
2018-02-13T13:58:12.670Z,2.70
2018-02-13T14:00:41.109Z,2.80
2018-02-13T14:03:08.710Z,6.23
2018-02-13T14:05:36.290Z,7.83
2018-02-13T14:08:03.842Z,2.57
2018-02-13T14:10:31.426Z,4.77
2018-02-13T14:12:59.071Z,3.70
2018-02-13T14:15:26.674Z,4.27
2018-02-13T14:17:54.274Z,4.40
2018-02-13T14:20:22.002Z,7.57
2018-02-13T14:22:49.563Z,4.77
2018-02-13T14:25:17.924Z,3.40
2018-02-13T14:27:45.506Z,6.77
2018-02-13T14:30:13.857Z,6.47
2018-02-13T14:32:41.444Z,6.60
2018-02-13T14:35:09.801Z,4.30
2018-02-13T14:37:37.567Z,3.27
2018-02-13T14:40:05.179Z,4.87
2018-02-13T14:42:32.763Z,3.63
2018-02-13T14:45:00.547Z,3.00
2018-02-13T14:47:28.400Z,5.67
2018-02-13T14:49:55.978Z,5.67
2018-02-13T14:52:23.537Z,3.40
2018-02-13T14:54:51.936Z,4.60
2018-02-13T14:57:20.443Z,5.03
2018-02-13T14:59:48.003Z,5.70
2018-02-13T15:02:15.666Z,4.93
2018-02-13T15:04:43.386Z,3.90
2018-02-13T15:07:11.745Z,8.50
2018-02-13T15:09:39.302Z,10.20
2018-02-13T15:12:06.970Z,5.00
2018-02-13T15:17:46.271Z,2.97
2018-02-13T15:20:13.846Z,4.30
2018-02-13T15:22:41.435Z,1.90
2018-02-13T15:25:08.998Z,2.00
2018-02-13T15:27:37.334Z,7.27
2018-02-13T15:30:04.930Z,4.67
2018-02-13T15:32:32.482Z,4.90
2018-02-13T15:35:00.090Z,4.20
2018-02-13T15:37:27.678Z,3.20
2018-02-13T15:39:55.284Z,4.07
2018-02-13T15:42:23.714Z,6.30
2018-02-13T15:44:51.414Z,3.97
2018-02-13T15:47:19.790Z,4.53
2018-02-13T15:49:48.162Z,7.10
2018-02-13T15:52:15.722Z,2.90
2018-02-13T15:54:43.297Z,8.53
2018-02-13T15:57:10.893Z,9.57
2018-02-13T15:59:38.512Z,11.00
2018-02-13T16:02:06.842Z,11.80
2018-02-13T16:04:34.551Z,10.05
2018-02-13T16:07:02.882Z,3.17
2018-02-13T16:09:30.466Z,5.10
2018-02-13T16:11:58.069Z,5.15
2018-02-13T16:14:25.680Z,3.25
2018-02-13T16:16:53.326Z,11.55
2018-02-13T16:19:20.900Z,17.70
2018-02-13T16:21:48.558Z,20.42
2018-02-13T16:24:16.126Z,14.98
2018-02-13T16:26:44.481Z,6.62
2018-02-13T16:29:12.058Z,6.90
2018-02-13T16:31:39.629Z,4.70
2018-02-13T16:34:07.998Z,7.12
2018-02-13T16:36:36.334Z,6.95
2018-02-13T16:39:03.927Z,4.62
2018-02-13T16:41:31.506Z,7.45
2018-02-13T16:43:59.862Z,3.85
2018-02-13T16:46:27.442Z,4.07
2018-02-13T16:48:55.814Z,18.60
2018-02-13T16:51:24.151Z,5.37
2018-02-13T16:53:51.798Z,5.07
2018-02-13T16:56:19.368Z,7.15
2018-02-13T16:58:46.966Z,4.22
2018-02-13T17:01:15.294Z,4.32
2018-02-13T17:03:42.862Z,5.15
2018-02-13T17:06:10.457Z,2.83
2018-02-13T17:08:38.937Z,4.57
2018-02-13T17:11:07.306Z,5.60
2018-02-13T17:13:34.869Z,5.05
2018-02-13T17:16:03.219Z,3.47
2018-02-13T17:18:30.814Z,6.30
2018-02-13T17:20:59.174Z,5.35
2018-02-13T17:23:26.750Z,8.15
2018-02-13T17:25:55.150Z,4.28
2018-02-13T17:28:22.711Z,6.07
2018-02-13T17:30:50.293Z,6.62
2018-02-13T17:33:17.891Z,8.45
2018-02-13T17:35:45.486Z,7.72
2018-02-13T17:38:13.087Z,6.78
2018-02-13T17:40:40.658Z,10.30
2018-02-13T17:43:08.331Z,6.60
2018-02-13T17:45:35.899Z,11.00
2018-02-13T17:48:04.277Z,6.47
2018-02-13T17:50:32.618Z,12.20
2018-02-13T17:53:00.235Z,8.55
2018-02-13T17:55:27.849Z,7.30
2018-02-13T17:57:55.417Z,6.97
2018-02-13T18:00:23.078Z,7.35
2018-02-13T18:02:50.641Z,7.25
2018-02-13T18:05:19.005Z,10.07
2018-02-13T18:07:48.087Z,9.70
2018-02-13T18:10:15.678Z,4.80
2018-02-13T18:12:44.018Z,3.92
2018-02-13T18:15:11.648Z,8.40
2018-02-13T18:17:39.360Z,5.40
2018-02-13T18:20:06.939Z,9.23
2018-02-13T18:22:35.411Z,4.55
2018-02-13T18:25:03.750Z,5.55
2018-02-13T18:27:31.351Z,6.60
2018-02-13T18:29:59.756Z,5.55
2018-02-13T18:32:27.413Z,8.27
2018-02-13T18:34:54.982Z,6.55
2018-02-13T18:37:22.609Z,9.60
2018-02-13T18:39:50.922Z,7.05
2018-02-13T18:42:18.532Z,9.45
2018-02-13T18:44:46.135Z,12.05
2018-02-13T18:47:13.780Z,6.60
2018-02-13T18:49:41.374Z,6.18
2018-02-13T18:54:36.526Z,6.70
2018-02-13T18:57:04.091Z,12.50
2018-02-13T18:59:32.542Z,7.20
2018-02-13T19:02:00.119Z,6.43
2018-02-13T19:04:27.780Z,11.23
2018-02-13T19:06:55.354Z,9.82
2018-02-13T19:09:23.739Z,13.82
2018-02-13T19:11:51.450Z,9.80
2018-02-13T19:14:19.051Z,10.15
2018-02-13T19:19:14.986Z,12.80
2018-02-13T19:21:43.515Z,10.77
2018-02-13T19:24:11.138Z,12.75
2018-02-13T19:26:39.590Z,17.17
2018-02-13T19:29:07.188Z,22.70
2018-02-13T19:31:34.768Z,52.55
2018-02-13T19:34:02.399Z,30.77
2018-02-13T19:36:29.979Z,20.95
2018-02-13T19:38:57.587Z,15.07
2018-02-13T19:41:26.090Z,11.75
2018-02-13T19:43:54.599Z,11.10
2018-02-13T19:46:22.201Z,9.27
2018-02-13T19:48:49.782Z,11.00
2018-02-13T19:51:18.303Z,15.20
2018-02-13T19:53:45.862Z,13.32
2018-02-13T19:56:13.575Z,12.60
2018-02-13T19:58:41.138Z,13.68
2018-02-13T20:01:09.518Z,9.13
2018-02-13T20:03:37.851Z,13.65
2018-02-13T20:06:05.426Z,10.30
2018-02-13T20:08:33.008Z,15.00
2018-02-13T20:11:01.378Z,13.00
2018-02-13T20:13:28.966Z,13.40
2018-02-13T20:15:56.535Z,21.33
2018-02-13T20:18:24.260Z,12.40
2018-02-13T20:20:51.832Z,17.80
2018-02-13T20:23:20.203Z,13.13
2018-02-13T20:25:48.531Z,12.90
2018-02-13T20:28:16.142Z,15.75
2018-02-13T20:30:44.483Z,14.00
2018-02-13T20:33:12.079Z,11.93
2018-02-13T20:35:40.458Z,10.65
2018-02-13T20:38:08.787Z,13.43
2018-02-13T20:40:36.416Z,10.52
2018-02-13T20:43:04.027Z,14.38
2018-02-13T20:45:31.590Z,13.07
2018-02-13T20:47:59.196Z,11.75
2018-02-13T20:50:26.863Z,15.48
2018-02-13T20:52:54.467Z,22.02
2018-02-13T20:55:22.038Z,13.98
2018-02-13T20:57:50.415Z,14.63
2018-02-13T21:00:19.106Z,15.95
2018-02-13T21:02:47.478Z,20.50
2018-02-13T21:05:15.884Z,17.45
2018-02-13T21:07:43.483Z,18.25
2018-02-13T21:10:11.082Z,17.73
2018-02-13T21:12:39.426Z,15.15
2018-02-13T21:15:07.040Z,16.87
2018-02-13T21:17:34.712Z,14.25
2018-02-13T21:20:02.339Z,12.20
2018-02-13T21:22:30.689Z,15.50
2018-02-13T21:24:58.257Z,15.98
2018-02-13T21:27:25.839Z,17.45
2018-02-13T21:29:54.182Z,21.00
2018-02-13T21:32:21.818Z,16.25
2018-02-13T21:34:49.383Z,11.45
2018-02-13T21:37:17.051Z,10.98
2018-02-13T21:39:44.692Z,14.82
2018-02-13T21:42:12.279Z,15.02
2018-02-13T21:44:39.908Z,12.63
2018-02-13T21:47:07.470Z,13.57
2018-02-13T21:49:35.066Z,10.50
2018-02-13T21:52:02.622Z,16.48
2018-02-13T21:54:31.020Z,14.43
2018-02-13T21:56:59.369Z,12.27
2018-02-13T21:59:26.939Z,17.45
2018-02-13T22:01:54.541Z,14.00
2018-02-13T22:04:22.110Z,12.57
2018-02-13T22:06:49.711Z,14.90
2018-02-13T22:09:17.330Z,13.13
2018-02-13T22:11:44.923Z,18.37
2018-02-13T22:14:13.262Z,19.73
2018-02-13T22:16:40.877Z,12.68
2018-02-13T22:19:09.222Z,14.32
2018-02-13T22:21:36.813Z,12.90
2018-02-13T22:24:05.214Z,18.65
2018-02-13T22:26:32.788Z,13.50
2018-02-13T22:29:00.398Z,13.07
2018-02-13T22:31:27.978Z,15.90
2018-02-13T22:33:56.342Z,11.12
2018-02-13T22:36:24.107Z,16.37
2018-02-13T22:38:52.534Z,18.80
2018-02-13T22:41:20.115Z,16.10
2018-02-13T22:43:47.857Z,21.40
2018-02-13T22:46:15.445Z,15.57
2018-02-13T22:48:43.018Z,13.05
2018-02-13T22:51:10.694Z,15.40
2018-02-13T22:53:39.034Z,21.02
2018-02-13T22:56:06.766Z,17.60
2018-02-13T22:58:34.335Z,13.30
2018-02-13T23:01:01.992Z,15.40
2018-02-13T23:03:29.643Z,13.95
2018-02-13T23:05:57.241Z,17.73
2018-02-13T23:08:24.834Z,17.05
2018-02-13T23:10:53.315Z,14.65
2018-02-13T23:13:21.691Z,16.02
2018-02-13T23:15:50.090Z,16.10
2018-02-13T23:18:17.826Z,17.05
2018-02-13T23:20:46.248Z,16.02
2018-02-13T23:23:14.018Z,20.10
2018-02-13T23:25:41.617Z,15.98
2018-02-13T23:28:09.202Z,19.40
2018-02-13T23:30:36.798Z,14.85
2018-02-13T23:33:04.353Z,23.35
2018-02-13T23:35:31.950Z,19.45
2018-02-13T23:37:59.542Z,15.90
2018-02-13T23:40:27.141Z,25.65
2018-02-13T23:42:54.714Z,17.70
2018-02-13T23:45:22.318Z,18.62
2018-02-13T23:47:49.924Z,19.40
2018-02-13T23:50:17.547Z,23.05
2018-02-13T23:52:45.115Z,16.70
2018-02-13T23:55:12.766Z,15.40
2018-02-13T23:57:40.350Z,25.73
